Time;durP1;ratioP1;P1;durP2;ratioP2;P2;SDS_P1;SDS_P2;PMS_P1;PMS_P2;Temp;Humidity;BMP_temperature;BMP_pressure;BME280_temperature;BME280_humidity;BME280_pressure;Samples;Min_cycle;Max_cycle;Signal;HPM_P1;HPM_P2
2022/07/10 00:00:29;;;;;;;9.02;2.28;;;14.10;99.90;;;;;;4755455;30;20087;-80
2022/07/10 00:03:08;;;;;;;5.95;1.30;;;14.10;99.90;;;;;;4736236;30;20056;-81
2022/07/10 00:05:50;;;;;;;8.77;1.55;;;14.00;99.90;;;;;;4736173;30;20096;-80
2022/07/10 00:09:20;;;;;;;7.07;1.38;;;14.00;99.90;;;;;;4750841;30;20071;-80
2022/07/10 00:12:07;;;;;;;9.90;2.70;;;13.90;99.90;;;;;;4728285;30;20099;-81
2022/07/10 00:14:56;;;;;;;5.20;1.20;;;13.90;99.90;;;;;;4737933;30;20056;-80
2022/07/10 00:17:27;;;;;;;9.93;1.83;;;13.90;99.90;;;;;;4753423;30;20044;-80
2022/07/10 00:20:48;;;;;;;8.73;1.77;;;13.90;99.90;;;;;;4773640;29;20051;-82
2022/07/10 00:23:33;;;;;;;8.80;1.83;;;14.00;99.90;;;;;;4789213;29;20049;-80
2022/07/10 00:26:11;;;;;;;10.48;1.83;;;13.80;99.90;;;;;;4774539;29;20086;-81
2022/07/10 00:28:56;;;;;;;8.52;1.60;;;13.90;99.90;;;;;;4805253;29;20513;-81
2022/07/10 00:31:43;;;;;;;7.18;2.40;;;13.90;99.90;;;;;;4763471;29;20493;-82
2022/07/10 00:34:43;;;;;;;;;;;;;;;;;;;;;
2022/07/10 00:37:27;;;;;;;14.98;2.63;;;14.10;99.90;;;;;;4788330;29;20047;-81
2022/07/10 00:40:07;;;;;;;12.93;1.83;;;14.00;99.90;;;;;;4776588;29;20043;-80
2022/07/10 00:42:41;;;;;;;7.82;1.33;;;14.10;99.90;;;;;;4779867;29;20066;-81
2022/07/10 00:45:16;;;;;;;10.73;2.00;;;14.10;99.90;;;;;;4789721;29;20035;-81
2022/07/10 00:47:47;;;;;;;17.38;2.17;;;14.20;99.90;;;;;;4796500;29;20091;-81
2022/07/10 00:50:35;;;;;;;12.77;2.45;;;14.20;99.90;;;;;;4790422;29;20049;-81
2022/07/10 00:53:19;;;;;;;11.15;1.88;;;14.20;99.90;;;;;;4758867;30;20116;-81
2022/07/10 00:56:07;;;;;;;18.98;2.03;;;14.20;99.90;;;;;;4758224;30;20046;-82
2022/07/10 00:58:48;;;;;;;12.77;1.67;;;14.20;99.90;;;;;;4758342;30;20057;-81
2022/07/10 01:01:49;;;;;;;10.85;2.25;;;14.20;99.90;;;;;;4765851;29;20086;-80
2022/07/10 01:04:40;;;;;;;10.18;2.17;;;14.20;99.90;;;;;;4765222;29;20043;-81
2022/07/10 01:07:36;;;;;;;7.15;1.50;;;14.30;99.90;;;;;;4783115;29;20055;-81
2022/07/10 01:10:25;;;;;;;8.95;1.60;;;14.30;99.90;;;;;;4776034;29;20104;-80
2022/07/10 01:13:07;;;;;;;10.27;1.50;;;14.30;99.90;;;;;;4760796;29;20051;-81
2022/07/10 01:15:55;;;;;;;7.97;1.40;;;14.30;99.50;;;;;;4773941;29;20055;-81
2022/07/10 01:18:42;;;;;;;3.22;1.05;;;14.40;99.50;;;;;;4775606;29;20054;-80
2022/07/10 01:21:40;;;;;;;7.60;1.23;;;14.40;99.10;;;;;;4774570;29;20047;-81
2022/07/10 01:24:25;;;;;;;11.90;1.55;;;14.10;99.10;;;;;;4790007;29;20143;-82
2022/07/10 01:30:36;;;;;;;7.75;1.30;;;14.30;99.10;;;;;;4809555;29;20102;-81
2022/07/10 01:33:32;;;;;;;6.07;1.45;;;14.30;99.00;;;;;;4774907;30;20120;-81
2022/07/10 01:36:16;;;;;;;11.48;1.48;;;14.30;99.30;;;;;;4761072;30;20113;-81
2022/07/10 01:39:00;;;;;;;8.02;1.73;;;14.30;99.40;;;;;;4731213;30;20130;-81
2022/07/10 01:41:26;;;;;;;9.35;1.52;;;14.30;99.40;;;;;;4767726;29;20047;-80
2022/07/10 01:44:08;;;;;;;5.13;1.00;;;14.30;99.50;;;;;;4777513;29;20061;-81
2022/07/10 01:47:13;;;;;;;7.15;1.73;;;14.30;99.80;;;;;;4764731;29;20043;-81
2022/07/10 01:50:16;;;;;;;;;;;;;;;;;;;;;
2022/07/10 01:53:07;;;;;;;8.82;1.58;;;14.40;99.90;;;;;;4792240;29;20112;-80
2022/07/10 01:56:01;;;;;;;11.45;1.27;;;14.30;99.90;;;;;;4793170;29;20059;-81
2022/07/10 01:58:48;;;;;;;11.20;2.45;;;14.40;99.90;;;;;;4778033;29;20050;-81
2022/07/10 02:01:37;;;;;;;8.32;1.58;;;14.40;99.90;;;;;;4763469;29;20047;-82
2022/07/10 02:07:21;;;;;;;6.53;1.38;;;14.40;99.90;;;;;;4792377;29;20133;-81
2022/07/10 02:10:08;;;;;;;10.80;2.25;;;14.50;99.90;;;;;;4778863;29;20062;-81
2022/07/10 02:13:14;;;;;;;;;;;;;;;;;;;;;
2022/07/10 02:15:49;;;;;;;9.27;1.70;;;14.50;99.90;;;;;;4799577;29;20084;-81
2022/07/10 02:21:27;;;;;;;12.20;1.98;;;14.50;99.90;;;;;;4791098;29;20129;-81
2022/07/10 02:24:09;;;;;;;9.70;2.28;;;14.50;99.90;;;;;;4791567;29;20062;-81
2022/07/10 02:26:37;;;;;;;14.70;2.40;;;14.50;99.90;;;;;;4791595;29;20062;-81
2022/07/10 02:29:21;;;;;;;15.88;1.92;;;14.50;99.90;;;;;;4763023;29;20050;-81
2022/07/10 02:32:26;;;;;;;7.93;2.08;;;14.50;99.90;;;;;;4791949;29;20081;-81
2022/07/10 02:35:02;;;;;;;8.32;1.55;;;14.50;99.90;;;;;;4777166;29;20042;-81
2022/07/10 02:37:40;;;;;;;14.13;2.35;;;14.50;99.90;;;;;;4778051;29;20489;-81
2022/07/10 02:40:14;;;;;;;35.55;2.75;;;14.50;99.90;;;;;;4763852;29;20057;-81
2022/07/10 02:42:45;;;;;;;16.08;2.08;;;14.50;99.90;;;;;;4776707;29;20130;-80
2022/07/10 02:45:23;;;;;;;12.52;2.10;;;14.50;99.90;;;;;;4789264;30;20051;-81
2022/07/10 02:48:09;;;;;;;7.93;1.98;;;14.50;99.90;;;;;;4780633;29;20050;-81
2022/07/10 02:50:47;;;;;;;15.35;2.13;;;14.50;99.90;;;;;;4763070;29;20051;-81
2022/07/10 02:53:48;;;;;;;15.50;2.63;;;14.50;99.90;;;;;;4759347;30;20554;-81
2022/07/10 02:56:39;;;;;;;8.85;2.20;;;14.50;99.90;;;;;;4750950;30;20066;-82
2022/07/10 02:59:18;;;;;;;8.88;1.90;;;14.50;99.90;;;;;;4759326;30;20056;-81
2022/07/10 03:01:49;;;;;;;9.90;1.95;;;14.30;99.90;;;;;;4781046;29;20061;-81
2022/07/10 03:04:27;;;;;;;11.27;2.42;;;14.30;99.90;;;;;;4776655;29;20396;-81
2022/07/10 03:07:03;;;;;;;14.10;2.55;;;14.30;99.90;;;;;;4776949;29;20051;-81
2022/07/10 03:09:29;;;;;;;15.35;2.47;;;14.30;99.90;;;;;;4791446;29;20050;-81
2022/07/10 03:12:15;;;;;;;9.77;2.40;;;14.20;99.90;;;;;;4774711;29;20507;-81
2022/07/10 03:14:46;;;;;;;10.30;2.10;;;14.20;99.90;;;;;;4791767;29;20065;-81
2022/07/10 03:17:23;;;;;;;9.68;2.00;;;14.20;99.90;;;;;;4777347;29;20050;-81
2022/07/10 03:19:51;;;;;;;14.45;2.35;;;14.20;99.90;;;;;;4791633;29;20083;-81
2022/07/10 03:22:32;;;;;;;10.80;2.22;;;14.30;99.90;;;;;;4776331;29;20114;-81
2022/07/10 03:28:22;;;;;;;16.48;2.47;;;14.30;99.90;;;;;;4791379;29;19932;-81
2022/07/10 03:30:59;;;;;;;14.18;2.70;;;14.30;99.90;;;;;;4776696;29;20115;-81
2022/07/10 03:33:53;;;;;;;;;;;;;;;;;;;;;
2022/07/10 03:36:22;;;;;;;11.55;3.63;;;14.30;99.90;;;;;;4791378;29;20058;-81
2022/07/10 03:39:01;;;;;;;12.77;3.35;;;14.30;99.90;;;;;;4791755;29;20043;-82
2022/07/10 03:41:32;;;;;;;12.43;2.40;;;14.30;99.90;;;;;;4776178;29;20050;-81
2022/07/10 03:44:10;;;;;;;9.82;2.10;;;14.30;99.90;;;;;;4794591;29;20180;-81
2022/07/10 03:46:41;;;;;;;11.75;2.40;;;14.30;99.90;;;;;;4799399;29;20032;-82
2022/07/10 03:49:10;;;;;;;12.07;2.28;;;14.30;99.90;;;;;;4808595;29;20090;-82
2022/07/10 03:51:41;;;;;;;8.43;2.40;;;14.30;99.90;;;;;;4775743;29;20039;-81
2022/07/10 03:54:07;;;;;;;10.80;2.80;;;14.30;99.90;;;;;;4776278;29;20424;-81
2022/07/10 03:59:33;;;;;;;9.20;2.47;;;14.40;99.90;;;;;;4791077;29;20472;-81
2022/07/10 04:01:59;;;;;;;15.00;2.55;;;14.30;99.90;;;;;;4775853;29;20563;-81
2022/07/10 04:04:27;;;;;;;10.30;2.78;;;14.40;99.90;;;;;;4788369;29;20058;-82
2022/07/10 04:07:03;;;;;;;13.88;2.05;;;14.40;99.90;;;;;;4761081;29;20051;-81
2022/07/10 04:09:37;;;;;;;23.53;3.00;;;14.40;99.90;;;;;;4776216;29;20046;-81
2022/07/10 04:12:03;;;;;;;11.95;2.70;;;14.40;99.90;;;;;;4775069;29;20055;-83
2022/07/10 04:14:57;;;;;;;17.90;2.78;;;14.40;99.90;;;;;;4788827;29;20472;-81
2022/07/10 04:17:41;;;;;;;7.47;1.90;;;14.40;99.90;;;;;;4790860;29;20054;-81
2022/07/10 04:20:35;;;;;;;13.02;2.35;;;14.40;99.90;;;;;;4790575;29;20066;-81
2022/07/10 04:23:13;;;;;;;8.90;2.40;;;14.40;99.90;;;;;;4776595;29;20050;-81
2022/07/10 04:26:04;;;;;;;17.60;2.35;;;14.50;99.90;;;;;;4776349;29;20042;-81
2022/07/10 04:28:32;;;;;;;9.15;2.28;;;14.50;99.90;;;;;;4775116;29;20618;-81
2022/07/10 04:31:07;;;;;;;12.52;2.58;;;14.60;99.90;;;;;;4790399;29;20062;-82
2022/07/10 04:33:48;;;;;;;;;;;14.60;99.90;;;;;;4790465;29;20054;-83
2022/07/10 04:36:19;;;;;;;10.93;1.88;;;14.70;99.90;;;;;;4790044;29;19986;-80
2022/07/10 04:38:58;;;;;;;10.52;2.70;;;14.70;99.90;;;;;;4790383;29;20054;-80
2022/07/10 04:41:31;;;;;;;7.85;1.77;;;14.70;99.90;;;;;;4790178;29;20069;-80
2022/07/10 04:44:08;;;;;;;11.02;2.95;;;14.80;99.90;;;;;;4774708;29;20121;-80
2022/07/10 04:46:40;;;;;;;9.57;2.10;;;14.80;99.90;;;;;;4775602;29;20061;-79
2022/07/10 04:49:42;;;;;;;11.30;2.67;;;14.80;99.90;;;;;;4758111;29;20055;-80
2022/07/10 04:52:48;;;;;;;12.00;2.45;;;14.90;99.90;;;;;;4787616;30;20051;-80
2022/07/10 04:55:36;;;;;;;;;;;;;;;;;;;;;
2022/07/10 04:58:26;;;;;;;14.00;2.70;;;14.90;99.90;;;;;;4716160;30;20045;-80
2022/07/10 05:01:13;;;;;;;8.65;2.42;;;14.90;99.90;;;;;;4727461;30;20058;-81
2022/07/10 05:04:04;;;;;;;12.38;2.35;;;15.00;99.90;;;;;;4735633;30;20056;-81
2022/07/10 05:06:57;;;;;;;11.63;2.78;;;14.90;99.90;;;;;;4722831;30;20067;-80
2022/07/10 05:09:35;;;;;;;9.38;2.08;;;14.90;99.90;;;;;;4706432;30;20063;-80
2022/07/10 05:13:08;;;;;;;13.45;2.40;;;14.90;99.90;;;;;;4748201;30;20099;-81
2022/07/10 05:16:09;;;;;;;9.30;1.98;;;15.00;99.90;;;;;;4748594;30;20052;-81
2022/07/10 05:19:00;;;;;;;9.73;2.10;;;15.00;99.90;;;;;;4725638;30;20067;-80
2022/07/10 05:21:49;;;;;;;10.32;2.53;;;15.00;99.90;;;;;;4722112;30;20092;-80
2022/07/10 05:24:41;;;;;;;8.80;1.92;;;15.00;99.90;;;;;;4708127;30;20048;-81
2022/07/10 05:27:44;;;;;;;7.97;1.70;;;15.00;99.90;;;;;;4758362;30;20416;-79
2022/07/10 05:33:40;;;;;;;8.57;2.60;;;15.00;99.90;;;;;;4808944;29;20093;-80
2022/07/10 05:36:44;;;;;;;9.80;1.77;;;15.00;99.90;;;;;;4808068;29;20110;-81
2022/07/10 05:39:58;;;;;;;9.98;1.83;;;15.00;99.90;;;;;;4778367;29;20149;-80
2022/07/10 05:42:40;;;;;;;8.68;2.28;;;15.10;99.90;;;;;;4778245;29;20463;-79
2022/07/10 05:45:15;;;;;;;13.40;2.40;;;15.10;99.90;;;;;;4777466;29;20086;-79
2022/07/10 05:48:03;;;;;;;10.52;2.20;;;15.20;99.90;;;;;;4757275;30;20094;-80
2022/07/10 05:50:34;;;;;;;8.75;1.73;;;15.30;99.90;;;;;;4775351;30;20396;-80
2022/07/10 05:53:11;;;;;;;8.65;2.38;;;15.40;99.90;;;;;;4774848;30;20086;-80
2022/07/10 05:55:51;;;;;;;12.82;2.10;;;15.50;99.90;;;;;;4774554;30;20062;-79
2022/07/10 05:58:36;;;;;;;11.55;2.40;;;15.60;99.90;;;;;;4760787;30;20058;-81
2022/07/10 06:01:23;;;;;;;;;;;;;;;;;;;;;
2022/07/10 06:04:49;;;;;;;12.50;1.95;;;15.70;99.90;;;;;;4763835;29;20059;-80
2022/07/10 06:14:48;;;;;;;7.78;2.08;;;15.50;99.90;;;;;;4781931;29;20071;-81
2022/07/10 06:17:49;;;;;;;8.95;2.45;;;15.40;99.90;;;;;;4771823;30;20063;-82
2022/07/10 06:20:51;;;;;;;7.90;1.92;;;15.40;99.90;;;;;;4771484;30;20526;-82
2022/07/10 06:24:01;;;;;;;8.10;2.38;;;15.40;99.90;;;;;;4735186;30;20064;-81
2022/07/10 06:29:36;;;;;;;10.95;1.98;;;15.60;99.90;;;;;;4692759;30;20170;-82
2022/07/10 06:32:07;;;;;;;9.38;1.65;;;15.60;99.90;;;;;;4702999;30;20491;-80
2022/07/10 06:35:18;;;;;;;9.27;2.10;;;15.50;99.90;;;;;;4717591;30;20056;-81
2022/07/10 06:37:49;;;;;;;8.85;1.58;;;15.50;99.90;;;;;;4705390;30;20053;-82
2022/07/10 06:40:20;;;;;;;7.75;1.60;;;15.40;99.90;;;;;;4729483;30;20121;-83
2022/07/10 06:42:46;;;;;;;10.02;2.53;;;15.50;99.90;;;;;;4706568;30;20056;-76
2022/07/10 06:45:42;;;;;;;6.25;1.85;;;15.50;99.90;;;;;;4745911;30;20510;-82
2022/07/10 06:48:43;;;;;;;6.93;1.95;;;15.40;99.90;;;;;;4722861;30;20056;-83
2022/07/10 06:51:15;;;;;;;15.45;2.45;;;15.40;99.90;;;;;;4652371;30;20540;-81
2022/07/10 06:53:52;;;;;;;14.27;1.92;;;15.50;99.90;;;;;;4726462;30;20127;-81
2022/07/10 07:11:43;;;;;;;6.35;1.80;;;15.80;99.90;;;;;;4725498;30;20174;-85
2022/07/10 07:15:41;;;;;;;;;;;;;;;;;;;;;
2022/07/10 07:23:18;;;;;;;5.78;1.75;;;15.80;99.90;;;;;;4664501;30;20053;-84
2022/07/10 07:29:32;;;;;;;8.45;2.10;;;15.90;99.90;;;;;;4565756;31;20052;-81
2022/07/10 07:32:05;;;;;;;7.15;1.50;;;15.90;99.90;;;;;;4587754;30;20067;-73
2022/07/10 07:35:01;;;;;;;7.18;1.80;;;15.90;99.90;;;;;;4677789;30;20599;-76
2022/07/10 07:41:16;;;;;;;8.05;1.60;;;16.00;99.90;;;;;;4715678;30;20488;-75
2022/07/10 07:44:08;;;;;;;8.73;1.52;;;16.10;99.90;;;;;;4713666;30;20106;-76
2022/07/10 07:54:17;;;;;;;8.95;1.85;;;16.70;99.90;;;;;;4691906;30;20144;-74
2022/07/10 08:00:58;;;;;;;;;;;;;;;;;;;;;
2022/07/10 08:03:52;;;;;;;6.78;1.52;;;17.70;99.90;;;;;;4597428;31;20048;-75
2022/07/10 08:10:26;;;;;;;7.07;1.60;;;17.30;99.90;;;;;;4614347;30;20090;-73
2022/07/10 08:12:52;;;;;;;7.82;1.70;;;17.00;99.90;;;;;;4615996;30;20086;-75
2022/07/10 08:15:22;;;;;;;8.43;1.92;;;16.90;99.90;;;;;;4631694;30;20057;-75
2022/07/10 08:18:24;;;;;;;8.35;1.60;;;16.80;99.90;;;;;;4667970;30;20061;-75
2022/07/10 08:25:03;;;;;;;8.57;1.80;;;16.60;99.90;;;;;;4639714;30;20081;-76
2022/07/10 08:27:28;;;;;;;6.25;1.45;;;16.60;99.90;;;;;;4680237;30;20551;-75
2022/07/10 08:29:54;;;;;;;4.80;1.73;;;16.70;99.90;;;;;;4714794;29;20146;-74
2022/07/10 08:32:30;;;;;;;5.80;2.17;;;16.60;99.90;;;;;;4783361;29;20054;-76
2022/07/10 08:42:47;;;;;;;7.65;1.70;;;16.60;99.90;;;;;;4736633;29;20043;-72
2022/07/10 08:46:02;;;;;;;7.05;2.22;;;16.60;99.90;;;;;;4795588;29;20078;-72
2022/07/10 08:49:31;;;;;;;;;;;;;;;;;;;;;
2022/07/10 08:52:54;;;;;;;11.20;1.83;;;16.60;99.90;;;;;;4752143;30;20104;-72
2022/07/10 09:11:28;;;;;;;11.10;2.53;;;16.90;99.90;;;;;;4675376;30;20443;-73
2022/07/10 09:39:25;;;;;;;14.85;2.00;;;17.50;99.90;;;;;;4741231;29;20066;-76
2022/07/10 09:41:51;;;;;;;7.18;1.75;;;17.80;99.90;;;;;;4760005;29;20051;-72
2022/07/10 09:44:18;;;;;;;12.07;1.90;;;17.80;99.90;;;;;;4770226;29;20047;-76
2022/07/10 09:46:44;;;;;;;5.40;1.45;;;17.80;99.90;;;;;;4754929;29;20047;-73
2022/07/10 09:49:11;;;;;;;6.68;1.85;;;17.70;99.90;;;;;;4773574;29;20067;-76
2022/07/10 09:51:49;;;;;;;6.93;1.55;;;17.70;99.90;;;;;;4775490;29;20063;-76
2022/07/10 09:54:15;;;;;;;8.60;1.77;;;17.70;99.90;;;;;;4758195;29;20059;-76
2022/07/10 09:56:55;;;;;;;6.10;1.55;;;17.60;99.90;;;;;;4773324;29;20493;-72
2022/07/10 09:59:21;;;;;;;7.82;1.90;;;17.60;99.90;;;;;;4774494;29;20043;-73
2022/07/10 10:01:51;;;;;;;10.07;2.15;;;17.70;99.90;;;;;;4776354;29;20111;-74
2022/07/10 10:04:19;;;;;;;9.68;1.80;;;17.70;99.90;;;;;;4774063;30;20055;-75
2022/07/10 10:07:07;;;;;;;7.20;1.70;;;17.70;99.90;;;;;;4791238;29;20422;-73
2022/07/10 10:09:40;;;;;;;8.27;2.03;;;17.60;99.90;;;;;;4775320;29;20051;-75
2022/07/10 10:15:42;;;;;;;7.05;1.98;;;17.50;99.90;;;;;;4772780;30;20059;-76
2022/07/10 10:18:37;;;;;;;;;;;;;;;;;;;;;
2022/07/10 10:24:41;;;;;;;6.88;1.63;;;17.50;99.90;;;;;;4774501;30;20047;-79
2022/07/10 10:35:49;;;;;;;11.27;3.05;;;17.60;99.90;;;;;;4756006;29;20058;-79
2022/07/10 10:38:18;;;;;;;5.68;1.50;;;17.70;99.90;;;;;;4781301;29;20047;-78
2022/07/10 10:40:47;;;;;;;9.18;1.70;;;17.80;99.90;;;;;;4781388;30;20051;-79
2022/07/10 10:43:23;;;;;;;8.27;1.50;;;17.90;99.90;;;;;;4759509;30;20463;-77
2022/07/10 10:45:52;;;;;;;9.80;2.45;;;17.80;99.90;;;;;;4766548;30;20501;-75
2022/07/10 10:48:45;;;;;;;4.78;1.20;;;17.90;99.90;;;;;;4790063;30;20050;-75
2022/07/10 10:51:11;;;;;;;6.80;1.63;;;18.00;99.90;;;;;;4774469;30;20115;-78
2022/07/10 10:57:18;;;;;;;7.97;1.65;;;18.20;99.90;;;;;;4790882;29;20080;-77
2022/07/10 11:00:00;;;;;;;5.95;1.30;;;18.30;99.90;;;;;;4796450;29;20039;-81
2022/07/10 11:03:29;;;;;;;5.82;1.40;;;18.30;99.90;;;;;;4787688;29;20131;-75
2022/07/10 11:09:43;;;;;;;9.27;1.88;;;18.50;99.90;;;;;;4787413;29;20512;-82
2022/07/10 11:27:48;;;;;;;5.05;1.48;;;18.70;99.40;;;;;;4749501;30;20055;-87
2022/07/10 11:34:34;;;;;;;9.43;1.25;;;18.80;99.10;;;;;;4734295;30;20147;-75
2022/07/10 11:37:00;;;;;;;6.72;1.33;;;18.90;98.50;;;;;;4741129;30;20051;-76
2022/07/10 11:43:04;;;;;;;4.55;1.30;;;18.90;99.50;;;;;;4769940;29;20409;-75
2022/07/10 11:45:36;;;;;;;4.10;1.60;;;18.90;99.60;;;;;;4772349;29;20129;-74
2022/07/10 11:51:47;;;;;;;5.05;1.23;;;19.00;99.50;;;;;;4787130;29;20405;-73
2022/07/10 11:54:44;;;;;;;4.47;1.08;;;19.10;99.60;;;;;;4772097;29;20611;-75
2022/07/10 11:57:53;;;;;;;7.47;1.40;;;19.10;99.50;;;;;;4785940;29;20509;-76
2022/07/10 12:01:07;;;;;;;;;;;;;;;;;;;;;
2022/07/10 12:04:04;;;;;;;6.18;1.27;;;19.30;98.50;;;;;;4772218;30;20081;-79
2022/07/10 20:28:55;;;;;;;7.75;2.05;;;16.80;99.90;;;;;;5451658;24;19921;-78
2022/07/10 20:32:04;;;;;;;5.35;1.77;;;16.80;99.90;;;;;;4772507;30;20365;-72
2022/07/10 20:34:35;;;;;;;8.55;1.90;;;16.80;99.90;;;;;;4765124;29;20432;-79
2022/07/10 20:45:18;;;;;;;6.53;1.60;;;16.70;99.90;;;;;;4701898;30;20054;-75
2022/07/10 20:47:52;;;;;;;6.82;2.28;;;16.70;99.90;;;;;;4689992;30;20502;-75
2022/07/10 20:50:50;;;;;;;8.30;2.47;;;16.60;99.90;;;;;;4731692;30;20199;-75
2022/07/10 20:54:03;;;;;;;8.40;2.78;;;16.60;99.90;;;;;;4718364;30;20056;-75
2022/07/10 21:07:51;;;;;;;7.85;2.53;;;16.60;99.90;;;;;;4693675;30;20608;-70
2022/07/10 21:11:12;;;;;;;;;;;;;;;;;;;;;
2022/07/10 21:27:06;;;;;;;8.00;2.45;;;16.40;99.90;;;;;;4802915;24;19926;-75
2022/07/10 21:29:45;;;;;;;7.20;2.55;;;16.40;99.90;;;;;;4766090;30;20043;-73
2022/07/10 21:32:11;;;;;;;8.48;2.67;;;16.40;99.90;;;;;;4750922;30;20139;-75
2022/07/10 21:34:37;;;;;;;7.20;2.42;;;16.40;99.90;;;;;;4739243;30;20138;-73
2022/07/10 21:37:21;;;;;;;5.82;2.45;;;16.40;99.90;;;;;;4753149;30;20071;-80
2022/07/10 21:39:47;;;;;;;6.45;2.33;;;16.30;99.90;;;;;;4751004;30;20056;-80
2022/07/10 21:42:13;;;;;;;;;;;16.30;99.90;;;;;;4753573;30;20134;-73
2022/07/10 21:55:58;;;;;;;9.85;3.25;;;16.30;99.90;;;;;;4761291;30;20386;-71
2022/07/10 22:14:34;;;;;;;6.72;2.40;;;16.20;99.90;;;;;;4669536;30;20492;-72
2022/07/10 22:17:06;;;;;;;5.93;2.60;;;16.20;99.90;;;;;;4660851;30;20141;-76
2022/07/10 22:24:44;;;;;;;15.05;2.88;;;16.20;99.90;;;;;;4597300;31;20076;-78
2022/07/10 22:47:25;;;;;;;14.45;3.15;;;16.40;99.90;;;;;;4516987;31;20061;-77
2022/07/10 23:02:40;;;;;;;;;;;;;;;;;;;;;
2022/07/10 23:10:17;;;;;;;;;;;;;;;;;;;;;
2022/07/10 23:37:42;;;;;;;9.55;3.50;;;16.00;99.90;;;;;;4640925;30;20058;-79
